sensor_id;sensor_type;location;lat;lon;timestamp;P1;durP1;ratioP1;P2;durP2;ratioP2
76320;SDS011;65132;52.088;5.402;2024-01-30T00:02:11;13.60;;;7.38;;
76320;SDS011;65132;52.088;5.402;2024-01-30T00:04:37;14.10;;;6.95;;
76320;SDS011;65132;52.088;5.402;2024-01-30T00:07:04;14.75;;;7.00;;
76320;SDS011;65132;52.088;5.402;2024-01-30T00:09:30;13.98;;;7.20;;
76320;SDS011;65132;52.088;5.402;2024-01-30T00:11:56;14.73;;;7.82;;
76320;SDS011;65132;52.088;5.402;2024-01-30T00:14:23;16.42;;;8.52;;
76320;SDS011;65132;52.088;5.402;2024-01-30T00:16:50;14.65;;;7.53;;
76320;SDS011;65132;52.088;5.402;2024-01-30T00:19:16;15.57;;;7.57;;
76320;SDS011;65132;52.088;5.402;2024-01-30T00:21:43;16.58;;;8.80;;
76320;SDS011;65132;52.088;5.402;2024-01-30T00:24:09;16.73;;;7.65;;
76320;SDS011;65132;52.088;5.402;2024-01-30T00:26:36;13.85;;;6.20;;
76320;SDS011;65132;52.088;5.402;2024-01-30T00:29:02;16.85;;;8.00;;
76320;SDS011;65132;52.088;5.402;2024-01-30T00:31:28;16.08;;;8.13;;
76320;SDS011;65132;52.088;5.402;2024-01-30T00:33:55;15.50;;;8.00;;
76320;SDS011;65132;52.088;5.402;2024-01-30T00:36:21;15.85;;;7.40;;
76320;SDS011;65132;52.088;5.402;2024-01-30T00:38:47;15.30;;;7.15;;
76320;SDS011;65132;52.088;5.402;2024-01-30T00:41:14;16.67;;;7.35;;
76320;SDS011;65132;52.088;5.402;2024-01-30T00:43:40;16.23;;;7.57;;
76320;SDS011;65132;52.088;5.402;2024-01-30T00:46:06;15.07;;;7.40;;
76320;SDS011;65132;52.088;5.402;2024-01-30T00:48:33;15.88;;;7.53;;
76320;SDS011;65132;52.088;5.402;2024-01-30T00:50:59;14.68;;;7.95;;
76320;SDS011;65132;52.088;5.402;2024-01-30T00:53:26;12.90;;;6.07;;
76320;SDS011;65132;52.088;5.402;2024-01-30T00:55:52;15.27;;;6.75;;
76320;SDS011;65132;52.088;5.402;2024-01-30T00:58:18;14.30;;;7.57;;
76320;SDS011;65132;52.088;5.402;2024-01-30T01:00:45;17.15;;;7.93;;
76320;SDS011;65132;52.088;5.402;2024-01-30T01:03:11;21.90;;;7.90;;
76320;SDS011;65132;52.088;5.402;2024-01-30T01:05:37;13.73;;;7.82;;
76320;SDS011;65132;52.088;5.402;2024-01-30T01:08:04;15.88;;;7.70;;
76320;SDS011;65132;52.088;5.402;2024-01-30T01:10:30;15.85;;;7.80;;
76320;SDS011;65132;52.088;5.402;2024-01-30T01:12:56;17.42;;;8.23;;
76320;SDS011;65132;52.088;5.402;2024-01-30T01:15:24;19.00;;;8.63;;
76320;SDS011;65132;52.088;5.402;2024-01-30T01:17:52;18.40;;;7.32;;
76320;SDS011;65132;52.088;5.402;2024-01-30T01:20:19;17.73;;;7.55;;
76320;SDS011;65132;52.088;5.402;2024-01-30T01:22:45;14.00;;;6.88;;
76320;SDS011;65132;52.088;5.402;2024-01-30T01:25:11;15.50;;;6.75;;
76320;SDS011;65132;52.088;5.402;2024-01-30T01:27:38;15.07;;;8.35;;
76320;SDS011;65132;52.088;5.402;2024-01-30T01:30:04;14.82;;;7.80;;
76320;SDS011;65132;52.088;5.402;2024-01-30T01:32:31;14.82;;;6.97;;
76320;SDS011;65132;52.088;5.402;2024-01-30T01:34:57;14.18;;;6.72;;
76320;SDS011;65132;52.088;5.402;2024-01-30T01:37:24;13.52;;;6.72;;
76320;SDS011;65132;52.088;5.402;2024-01-30T01:39:50;13.30;;;7.05;;
76320;SDS011;65132;52.088;5.402;2024-01-30T01:42:16;14.23;;;7.10;;
76320;SDS011;65132;52.088;5.402;2024-01-30T01:44:43;17.02;;;8.07;;
76320;SDS011;65132;52.088;5.402;2024-01-30T01:47:09;15.93;;;7.90;;
76320;SDS011;65132;52.088;5.402;2024-01-30T01:49:35;12.07;;;5.70;;
76320;SDS011;65132;52.088;5.402;2024-01-30T01:52:02;13.45;;;7.05;;
76320;SDS011;65132;52.088;5.402;2024-01-30T01:54:28;13.15;;;6.60;;
76320;SDS011;65132;52.088;5.402;2024-01-30T01:56:55;15.52;;;8.02;;
76320;SDS011;65132;52.088;5.402;2024-01-30T01:59:22;12.93;;;6.85;;
76320;SDS011;65132;52.088;5.402;2024-01-30T02:01:50;14.20;;;6.88;;
76320;SDS011;65132;52.088;5.402;2024-01-30T02:04:17;13.55;;;6.53;;
76320;SDS011;65132;52.088;5.402;2024-01-30T02:06:43;13.20;;;6.97;;
76320;SDS011;65132;52.088;5.402;2024-01-30T02:09:10;14.32;;;7.20;;
76320;SDS011;65132;52.088;5.402;2024-01-30T02:11:36;13.30;;;6.28;;
76320;SDS011;65132;52.088;5.402;2024-01-30T02:14:03;14.07;;;6.95;;
76320;SDS011;65132;52.088;5.402;2024-01-30T02:16:29;13.85;;;6.25;;
76320;SDS011;65132;52.088;5.402;2024-01-30T02:18:56;11.77;;;5.88;;
76320;SDS011;65132;52.088;5.402;2024-01-30T02:21:22;12.40;;;6.32;;
76320;SDS011;65132;52.088;5.402;2024-01-30T02:23:49;17.30;;;5.78;;
76320;SDS011;65132;52.088;5.402;2024-01-30T02:26:15;13.85;;;7.20;;
76320;SDS011;65132;52.088;5.402;2024-01-30T02:28:41;15.77;;;5.80;;
76320;SDS011;65132;52.088;5.402;2024-01-30T02:31:08;13.07;;;6.57;;
76320;SDS011;65132;52.088;5.402;2024-01-30T02:33:34;13.88;;;6.15;;
76320;SDS011;65132;52.088;5.402;2024-01-30T02:36:01;12.43;;;6.30;;
76320;SDS011;65132;52.088;5.402;2024-01-30T02:38:28;13.23;;;6.50;;
76320;SDS011;65132;52.088;5.402;2024-01-30T02:40:54;17.02;;;7.93;;
76320;SDS011;65132;52.088;5.402;2024-01-30T02:43:23;13.07;;;6.18;;
76320;SDS011;65132;52.088;5.402;2024-01-30T02:45:50;18.00;;;7.72;;
76320;SDS011;65132;52.088;5.402;2024-01-30T02:48:16;15.25;;;7.43;;
76320;SDS011;65132;52.088;5.402;2024-01-30T02:50:43;15.98;;;7.68;;
76320;SDS011;65132;52.088;5.402;2024-01-30T02:53:09;15.68;;;6.10;;
76320;SDS011;65132;52.088;5.402;2024-01-30T02:55:35;16.48;;;8.35;;
76320;SDS011;65132;52.088;5.402;2024-01-30T02:58:02;20.08;;;9.43;;
76320;SDS011;65132;52.088;5.402;2024-01-30T03:00:28;18.50;;;9.27;;
76320;SDS011;65132;52.088;5.402;2024-01-30T03:02:54;15.85;;;8.65;;
76320;SDS011;65132;52.088;5.402;2024-01-30T03:05:21;17.58;;;8.30;;
76320;SDS011;65132;52.088;5.402;2024-01-30T03:07:47;18.38;;;9.00;;
76320;SDS011;65132;52.088;5.402;2024-01-30T03:10:13;16.23;;;7.47;;
76320;SDS011;65132;52.088;5.402;2024-01-30T03:12:40;17.35;;;7.47;;
76320;SDS011;65132;52.088;5.402;2024-01-30T03:15:06;12.88;;;6.35;;
76320;SDS011;65132;52.088;5.402;2024-01-30T03:17:32;13.93;;;6.43;;
76320;SDS011;65132;52.088;5.402;2024-01-30T03:19:59;13.48;;;6.68;;
76320;SDS011;65132;52.088;5.402;2024-01-30T03:22:25;14.18;;;6.75;;
76320;SDS011;65132;52.088;5.402;2024-01-30T03:24:52;12.98;;;7.53;;
76320;SDS011;65132;52.088;5.402;2024-01-30T03:27:18;10.57;;;6.00;;
76320;SDS011;65132;52.088;5.402;2024-01-30T03:29:44;11.70;;;5.40;;
76320;SDS011;65132;52.088;5.402;2024-01-30T03:32:12;11.02;;;5.40;;
76320;SDS011;65132;52.088;5.402;2024-01-30T03:34:38;9.60;;;5.18;;
76320;SDS011;65132;52.088;5.402;2024-01-30T03:37:05;14.18;;;5.93;;
76320;SDS011;65132;52.088;5.402;2024-01-30T03:39:32;11.65;;;5.88;;
76320;SDS011;65132;52.088;5.402;2024-01-30T03:41:58;14.27;;;6.43;;
76320;SDS011;65132;52.088;5.402;2024-01-30T03:44:24;12.40;;;5.93;;
76320;SDS011;65132;52.088;5.402;2024-01-30T03:46:50;13.38;;;5.75;;
76320;SDS011;65132;52.088;5.402;2024-01-30T03:49:17;14.50;;;6.70;;
76320;SDS011;65132;52.088;5.402;2024-01-30T03:51:43;11.02;;;6.00;;
76320;SDS011;65132;52.088;5.402;2024-01-30T03:54:09;12.82;;;6.25;;
76320;SDS011;65132;52.088;5.402;2024-01-30T03:56:36;12.90;;;5.68;;
76320;SDS011;65132;52.088;5.402;2024-01-30T03:59:02;11.48;;;5.57;;
76320;SDS011;65132;52.088;5.402;2024-01-30T04:01:28;12.18;;;5.82;;
76320;SDS011;65132;52.088;5.402;2024-01-30T04:03:55;13.13;;;5.97;;
76320;SDS011;65132;52.088;5.402;2024-01-30T04:06:21;11.55;;;5.93;;
76320;SDS011;65132;52.088;5.402;2024-01-30T04:08:48;12.45;;;5.18;;
76320;SDS011;65132;52.088;5.402;2024-01-30T04:11:17;11.85;;;5.75;;
76320;SDS011;65132;52.088;5.402;2024-01-30T04:13:44;10.35;;;5.45;;
76320;SDS011;65132;52.088;5.402;2024-01-30T04:16:18;8.27;;;4.40;;
76320;SDS011;65132;52.088;5.402;2024-01-30T04:18:45;11.32;;;5.15;;
76320;SDS011;65132;52.088;5.402;2024-01-30T04:21:11;12.07;;;5.30;;
76320;SDS011;65132;52.088;5.402;2024-01-30T04:23:37;10.48;;;5.43;;
76320;SDS011;65132;52.088;5.402;2024-01-30T04:26:04;11.10;;;5.75;;
76320;SDS011;65132;52.088;5.402;2024-01-30T04:28:30;12.20;;;5.90;;
76320;SDS011;65132;52.088;5.402;2024-01-30T04:30:56;9.30;;;4.30;;
76320;SDS011;65132;52.088;5.402;2024-01-30T04:33:23;12.05;;;5.38;;
76320;SDS011;65132;52.088;5.402;2024-01-30T04:35:49;11.52;;;4.28;;
76320;SDS011;65132;52.088;5.402;2024-01-30T04:38:16;11.25;;;4.85;;
76320;SDS011;65132;52.088;5.402;2024-01-30T04:40:42;13.32;;;5.55;;
76320;SDS011;65132;52.088;5.402;2024-01-30T04:43:08;11.95;;;4.93;;
76320;SDS011;65132;52.088;5.402;2024-01-30T04:45:35;11.45;;;4.72;;
76320;SDS011;65132;52.088;5.402;2024-01-30T04:48:01;11.43;;;4.80;;
76320;SDS011;65132;52.088;5.402;2024-01-30T04:50:27;10.35;;;5.05;;
76320;SDS011;65132;52.088;5.402;2024-01-30T04:52:54;12.55;;;5.60;;
76320;SDS011;65132;52.088;5.402;2024-01-30T04:55:20;9.55;;;4.95;;
76320;SDS011;65132;52.088;5.402;2024-01-30T04:57:48;10.43;;;5.90;;
76320;SDS011;65132;52.088;5.402;2024-01-30T05:00:15;11.93;;;5.80;;
76320;SDS011;65132;52.088;5.402;2024-01-30T05:02:41;9.13;;;4.57;;
76320;SDS011;65132;52.088;5.402;2024-01-30T05:05:08;10.75;;;5.28;;
76320;SDS011;65132;52.088;5.402;2024-01-30T05:07:34;9.00;;;4.88;;
76320;SDS011;65132;52.088;5.402;2024-01-30T05:10:01;10.13;;;5.07;;
76320;SDS011;65132;52.088;5.402;2024-01-30T05:12:31;9.57;;;4.55;;
76320;SDS011;65132;52.088;5.402;2024-01-30T05:14:58;10.10;;;4.93;;
76320;SDS011;65132;52.088;5.402;2024-01-30T05:17:27;10.15;;;4.78;;
76320;SDS011;65132;52.088;5.402;2024-01-30T05:19:53;11.82;;;4.93;;
76320;SDS011;65132;52.088;5.402;2024-01-30T05:22:20;13.65;;;6.20;;
76320;SDS011;65132;52.088;5.402;2024-01-30T05:24:46;12.52;;;5.28;;
76320;SDS011;65132;52.088;5.402;2024-01-30T05:27:12;11.00;;;5.60;;
76320;SDS011;65132;52.088;5.402;2024-01-30T05:29:39;12.75;;;5.38;;
76320;SDS011;65132;52.088;5.402;2024-01-30T05:32:06;11.45;;;5.15;;
76320;SDS011;65132;52.088;5.402;2024-01-30T05:34:32;10.13;;;4.95;;
76320;SDS011;65132;52.088;5.402;2024-01-30T05:37:00;12.27;;;5.32;;
76320;SDS011;65132;52.088;5.402;2024-01-30T05:39:26;10.98;;;5.65;;
76320;SDS011;65132;52.088;5.402;2024-01-30T05:41:53;9.07;;;4.70;;
76320;SDS011;65132;52.088;5.402;2024-01-30T05:44:19;10.73;;;5.05;;
76320;SDS011;65132;52.088;5.402;2024-01-30T05:46:45;12.02;;;5.70;;
76320;SDS011;65132;52.088;5.402;2024-01-30T05:49:12;9.65;;;5.28;;
76320;SDS011;65132;52.088;5.402;2024-01-30T05:51:38;10.85;;;5.25;;
76320;SDS011;65132;52.088;5.402;2024-01-30T05:54:05;12.27;;;5.53;;
76320;SDS011;65132;52.088;5.402;2024-01-30T05:56:31;11.48;;;5.85;;
76320;SDS011;65132;52.088;5.402;2024-01-30T05:58:57;9.93;;;5.13;;
76320;SDS011;65132;52.088;5.402;2024-01-30T06:01:24;11.27;;;5.45;;
76320;SDS011;65132;52.088;5.402;2024-01-30T06:03:50;11.40;;;5.75;;
76320;SDS011;65132;52.088;5.402;2024-01-30T06:06:17;11.68;;;5.32;;
76320;SDS011;65132;52.088;5.402;2024-01-30T06:08:43;8.45;;;4.82;;
76320;SDS011;65132;52.088;5.402;2024-01-30T06:11:10;9.50;;;4.38;;
76320;SDS011;65132;52.088;5.402;2024-01-30T06:13:36;11.93;;;5.65;;
76320;SDS011;65132;52.088;5.402;2024-01-30T06:16:03;10.15;;;5.22;;
76320;SDS011;65132;52.088;5.402;2024-01-30T06:18:29;11.02;;;4.80;;
76320;SDS011;65132;52.088;5.402;2024-01-30T06:20:56;11.75;;;5.20;;
76320;SDS011;65132;52.088;5.402;2024-01-30T06:23:22;11.55;;;5.95;;
76320;SDS011;65132;52.088;5.402;2024-01-30T06:25:48;11.90;;;5.30;;
76320;SDS011;65132;52.088;5.402;2024-01-30T06:28:14;11.35;;;4.72;;
76320;SDS011;65132;52.088;5.402;2024-01-30T06:30:41;7.28;;;3.42;;
76320;SDS011;65132;52.088;5.402;2024-01-30T06:33:07;10.43;;;4.55;;
76320;SDS011;65132;52.088;5.402;2024-01-30T06:35:34;11.63;;;5.85;;
76320;SDS011;65132;52.088;5.402;2024-01-30T06:38:00;11.95;;;5.60;;
76320;SDS011;65132;52.088;5.402;2024-01-30T06:40:26;10.38;;;4.88;;
76320;SDS011;65132;52.088;5.402;2024-01-30T06:42:53;10.90;;;5.63;;
76320;SDS011;65132;52.088;5.402;2024-01-30T06:45:19;9.63;;;4.88;;
76320;SDS011;65132;52.088;5.402;2024-01-30T06:47:47;9.77;;;4.72;;
76320;SDS011;65132;52.088;5.402;2024-01-30T06:50:13;10.20;;;4.78;;
76320;SDS011;65132;52.088;5.402;2024-01-30T06:52:39;10.10;;;4.55;;
76320;SDS011;65132;52.088;5.402;2024-01-30T06:55:06;10.07;;;4.70;;
76320;SDS011;65132;52.088;5.402;2024-01-30T06:57:35;10.60;;;5.20;;
76320;SDS011;65132;52.088;5.402;2024-01-30T07:00:01;10.35;;;4.68;;
76320;SDS011;65132;52.088;5.402;2024-01-30T07:02:28;11.13;;;4.57;;
76320;SDS011;65132;52.088;5.402;2024-01-30T07:04:54;8.40;;;3.88;;
76320;SDS011;65132;52.088;5.402;2024-01-30T07:07:21;10.07;;;4.50;;
76320;SDS011;65132;52.088;5.402;2024-01-30T07:09:47;12.10;;;4.82;;
76320;SDS011;65132;52.088;5.402;2024-01-30T07:12:14;9.57;;;5.20;;
76320;SDS011;65132;52.088;5.402;2024-01-30T07:14:40;8.93;;;4.05;;
76320;SDS011;65132;52.088;5.402;2024-01-30T07:17:06;12.13;;;5.50;;
76320;SDS011;65132;52.088;5.402;2024-01-30T07:19:33;9.57;;;4.80;;
76320;SDS011;65132;52.088;5.402;2024-01-30T07:21:59;10.70;;;4.78;;
76320;SDS011;65132;52.088;5.402;2024-01-30T07:24:25;11.07;;;4.40;;
76320;SDS011;65132;52.088;5.402;2024-01-30T07:26:52;11.38;;;4.97;;
76320;SDS011;65132;52.088;5.402;2024-01-30T07:29:18;8.57;;;4.25;;
76320;SDS011;65132;52.088;5.402;2024-01-30T07:31:45;8.00;;;4.18;;
76320;SDS011;65132;52.088;5.402;2024-01-30T07:34:11;9.50;;;3.78;;
76320;SDS011;65132;52.088;5.402;2024-01-30T07:36:38;11.32;;;5.35;;
76320;SDS011;65132;52.088;5.402;2024-01-30T07:39:05;13.18;;;5.00;;
76320;SDS011;65132;52.088;5.402;2024-01-30T07:41:31;10.38;;;5.35;;
76320;SDS011;65132;52.088;5.402;2024-01-30T07:43:57;10.93;;;5.03;;
76320;SDS011;65132;52.088;5.402;2024-01-30T07:46:24;10.23;;;4.57;;
76320;SDS011;65132;52.088;5.402;2024-01-30T07:48:50;11.48;;;4.50;;
76320;SDS011;65132;52.088;5.402;2024-01-30T07:51:20;9.00;;;4.38;;
76320;SDS011;65132;52.088;5.402;2024-01-30T07:53:54;9.35;;;5.43;;
76320;SDS011;65132;52.088;5.402;2024-01-30T07:56:20;12.07;;;5.20;;
76320;SDS011;65132;52.088;5.402;2024-01-30T07:58:47;9.48;;;4.85;;
76320;SDS011;65132;52.088;5.402;2024-01-30T08:01:14;10.32;;;4.85;;
76320;SDS011;65132;52.088;5.402;2024-01-30T08:03:41;9.45;;;5.25;;
76320;SDS011;65132;52.088;5.402;2024-01-30T08:06:08;10.55;;;5.07;;
76320;SDS011;65132;52.088;5.402;2024-01-30T08:08:34;12.80;;;5.97;;
76320;SDS011;65132;52.088;5.402;2024-01-30T08:11:00;5.82;;;3.22;;
76320;SDS011;65132;52.088;5.402;2024-01-30T08:13:27;12.60;;;5.40;;
76320;SDS011;65132;52.088;5.402;2024-01-30T08:15:53;11.50;;;5.10;;
76320;SDS011;65132;52.088;5.402;2024-01-30T08:18:20;10.30;;;4.18;;
76320;SDS011;65132;52.088;5.402;2024-01-30T08:20:46;12.73;;;5.13;;
76320;SDS011;65132;52.088;5.402;2024-01-30T08:23:13;8.73;;;4.20;;
76320;SDS011;65132;52.088;5.402;2024-01-30T08:25:40;8.93;;;3.92;;
76320;SDS011;65132;52.088;5.402;2024-01-30T08:28:07;9.80;;;5.05;;
76320;SDS011;65132;52.088;5.402;2024-01-30T08:30:33;14.52;;;5.28;;
76320;SDS011;65132;52.088;5.402;2024-01-30T08:33:00;13.00;;;4.80;;
76320;SDS011;65132;52.088;5.402;2024-01-30T08:35:26;8.55;;;3.78;;
76320;SDS011;65132;52.088;5.402;2024-01-30T08:37:53;13.38;;;5.30;;
76320;SDS011;65132;52.088;5.402;2024-01-30T08:40:19;12.43;;;5.03;;
76320;SDS011;65132;52.088;5.402;2024-01-30T08:42:46;13.10;;;4.88;;
76320;SDS011;65132;52.088;5.402;2024-01-30T08:45:12;12.48;;;4.50;;
76320;SDS011;65132;52.088;5.402;2024-01-30T08:47:39;15.27;;;5.53;;
76320;SDS011;65132;52.088;5.402;2024-01-30T08:50:06;13.60;;;5.15;;
76320;SDS011;65132;52.088;5.402;2024-01-30T08:52:33;11.98;;;4.75;;
76320;SDS011;65132;52.088;5.402;2024-01-30T08:55:00;9.75;;;4.70;;
76320;SDS011;65132;52.088;5.402;2024-01-30T08:57:26;13.00;;;5.05;;
76320;SDS011;65132;52.088;5.402;2024-01-30T08:59:53;10.25;;;4.38;;
76320;SDS011;65132;52.088;5.402;2024-01-30T09:02:19;12.05;;;5.13;;
76320;SDS011;65132;52.088;5.402;2024-01-30T09:04:46;9.35;;;4.35;;
76320;SDS011;65132;52.088;5.402;2024-01-30T09:07:12;13.70;;;5.38;;
76320;SDS011;65132;52.088;5.402;2024-01-30T09:09:39;11.18;;;4.70;;
76320;SDS011;65132;52.088;5.402;2024-01-30T09:12:06;11.75;;;5.00;;
76320;SDS011;65132;52.088;5.402;2024-01-30T09:14:32;12.32;;;5.65;;
76320;SDS011;65132;52.088;5.402;2024-01-30T09:16:59;11.13;;;4.57;;
76320;SDS011;65132;52.088;5.402;2024-01-30T09:19:25;10.73;;;4.57;;
76320;SDS011;65132;52.088;5.402;2024-01-30T09:21:52;12.00;;;5.25;;
76320;SDS011;65132;52.088;5.402;2024-01-30T09:24:18;9.43;;;4.15;;
76320;SDS011;65132;52.088;5.402;2024-01-30T09:26:44;11.13;;;4.35;;
76320;SDS011;65132;52.088;5.402;2024-01-30T09:29:11;10.40;;;5.03;;
76320;SDS011;65132;52.088;5.402;2024-01-30T09:31:37;11.27;;;5.05;;
76320;SDS011;65132;52.088;5.402;2024-01-30T09:34:04;10.20;;;4.22;;
76320;SDS011;65132;52.088;5.402;2024-01-30T09:36:31;9.50;;;4.82;;
76320;SDS011;65132;52.088;5.402;2024-01-30T09:38:57;10.88;;;4.90;;
76320;SDS011;65132;52.088;5.402;2024-01-30T09:41:24;11.93;;;4.60;;
76320;SDS011;65132;52.088;5.402;2024-01-30T09:43:50;9.63;;;4.78;;
76320;SDS011;65132;52.088;5.402;2024-01-30T09:46:17;9.48;;;4.10;;
76320;SDS011;65132;52.088;5.402;2024-01-30T09:48:45;12.02;;;4.85;;
76320;SDS011;65132;52.088;5.402;2024-01-30T09:51:12;12.02;;;5.28;;
76320;SDS011;65132;52.088;5.402;2024-01-30T09:53:41;11.57;;;4.63;;
76320;SDS011;65132;52.088;5.402;2024-01-30T09:56:08;9.48;;;5.07;;
76320;SDS011;65132;52.088;5.402;2024-01-30T09:58:34;11.10;;;4.72;;
76320;SDS011;65132;52.088;5.402;2024-01-30T10:01:00;11.45;;;5.90;;
76320;SDS011;65132;52.088;5.402;2024-01-30T10:03:27;14.85;;;5.03;;
76320;SDS011;65132;52.088;5.402;2024-01-30T10:05:53;12.02;;;4.88;;
76320;SDS011;65132;52.088;5.402;2024-01-30T10:08:21;8.93;;;4.95;;
76320;SDS011;65132;52.088;5.402;2024-01-30T10:10:47;10.18;;;5.03;;
76320;SDS011;65132;52.088;5.402;2024-01-30T10:13:14;10.15;;;4.55;;
76320;SDS011;65132;52.088;5.402;2024-01-30T10:15:41;8.32;;;5.00;;
76320;SDS011;65132;52.088;5.402;2024-01-30T10:18:10;9.77;;;5.10;;
76320;SDS011;65132;52.088;5.402;2024-01-30T10:20:37;8.98;;;3.90;;
76320;SDS011;65132;52.088;5.402;2024-01-30T10:23:03;9.88;;;4.75;;
76320;SDS011;65132;52.088;5.402;2024-01-30T10:25:33;12.00;;;4.50;;
76320;SDS011;65132;52.088;5.402;2024-01-30T10:27:59;10.13;;;4.75;;
76320;SDS011;65132;52.088;5.402;2024-01-30T10:30:27;11.07;;;3.85;;
76320;SDS011;65132;52.088;5.402;2024-01-30T10:32:53;6.75;;;3.60;;
76320;SDS011;65132;52.088;5.402;2024-01-30T10:35:19;10.60;;;4.35;;
76320;SDS011;65132;52.088;5.402;2024-01-30T10:37:49;11.02;;;4.63;;
76320;SDS011;65132;52.088;5.402;2024-01-30T10:40:15;10.38;;;4.55;;
76320;SDS011;65132;52.088;5.402;2024-01-30T10:42:43;12.32;;;4.40;;
76320;SDS011;65132;52.088;5.402;2024-01-30T10:45:13;8.68;;;3.80;;
76320;SDS011;65132;52.088;5.402;2024-01-30T10:47:40;9.30;;;4.22;;
76320;SDS011;65132;52.088;5.402;2024-01-30T10:50:08;7.78;;;3.92;;
76320;SDS011;65132;52.088;5.402;2024-01-30T10:52:34;10.63;;;4.65;;
76320;SDS011;65132;52.088;5.402;2024-01-30T10:55:01;8.57;;;4.40;;
76320;SDS011;65132;52.088;5.402;2024-01-30T10:57:29;10.05;;;4.22;;
76320;SDS011;65132;52.088;5.402;2024-01-30T10:59:59;9.35;;;3.97;;
76320;SDS011;65132;52.088;5.402;2024-01-30T11:02:26;9.15;;;4.22;;
76320;SDS011;65132;52.088;5.402;2024-01-30T11:04:56;8.60;;;3.97;;
76320;SDS011;65132;52.088;5.402;2024-01-30T11:12:25;6.60;;;3.50;;
76320;SDS011;65132;52.088;5.402;2024-01-30T11:15:07;10.57;;;4.05;;
76320;SDS011;65132;52.088;5.402;2024-01-30T11:20:22;8.65;;;3.60;;
76320;SDS011;65132;52.088;5.402;2024-01-30T11:22:52;7.30;;;3.63;;
76320;SDS011;65132;52.088;5.402;2024-01-30T11:25:22;10.68;;;4.40;;
76320;SDS011;65132;52.088;5.402;2024-01-30T11:27:52;8.70;;;4.25;;
76320;SDS011;65132;52.088;5.402;2024-01-30T11:32:58;9.32;;;3.72;;
76320;SDS011;65132;52.088;5.402;2024-01-30T11:35:25;10.13;;;3.97;;
76320;SDS011;65132;52.088;5.402;2024-01-30T11:37:51;9.13;;;3.20;;
76320;SDS011;65132;52.088;5.402;2024-01-30T11:40:19;8.35;;;2.95;;
76320;SDS011;65132;52.088;5.402;2024-01-30T11:42:45;8.27;;;3.05;;
76320;SDS011;65132;52.088;5.402;2024-01-30T11:45:11;5.55;;;1.98;;
76320;SDS011;65132;52.088;5.402;2024-01-30T11:47:38;5.88;;;2.35;;
76320;SDS011;65132;52.088;5.402;2024-01-30T11:50:09;6.63;;;1.60;;
76320;SDS011;65132;52.088;5.402;2024-01-30T11:52:36;3.88;;;1.27;;
76320;SDS011;65132;52.088;5.402;2024-01-30T11:55:02;7.30;;;1.90;;
76320;SDS011;65132;52.088;5.402;2024-01-30T11:57:29;5.13;;;2.10;;
76320;SDS011;65132;52.088;5.402;2024-01-30T11:59:55;4.25;;;1.23;;
76320;SDS011;65132;52.088;5.402;2024-01-30T12:02:21;4.85;;;1.20;;
76320;SDS011;65132;52.088;5.402;2024-01-30T12:04:48;3.53;;;1.15;;
76320;SDS011;65132;52.088;5.402;2024-01-30T12:07:14;5.50;;;1.27;;
76320;SDS011;65132;52.088;5.402;2024-01-30T12:09:41;3.90;;;0.88;;
76320;SDS011;65132;52.088;5.402;2024-01-30T12:12:07;1.75;;;0.40;;
76320;SDS011;65132;52.088;5.402;2024-01-30T12:14:34;2.95;;;1.00;;
76320;SDS011;65132;52.088;5.402;2024-01-30T12:17:00;5.00;;;0.70;;
76320;SDS011;65132;52.088;5.402;2024-01-30T12:19:27;2.67;;;0.88;;
76320;SDS011;65132;52.088;5.402;2024-01-30T12:21:54;2.53;;;0.68;;
76320;SDS011;65132;52.088;5.402;2024-01-30T12:24:21;3.42;;;1.10;;
76320;SDS011;65132;52.088;5.402;2024-01-30T12:26:50;3.22;;;1.17;;
76320;SDS011;65132;52.088;5.402;2024-01-30T12:29:16;2.83;;;1.35;;
76320;SDS011;65132;52.088;5.402;2024-01-30T12:31:43;6.60;;;1.40;;
76320;SDS011;65132;52.088;5.402;2024-01-30T12:34:09;6.65;;;1.85;;
76320;SDS011;65132;52.088;5.402;2024-01-30T12:39:06;5.00;;;1.50;;
76320;SDS011;65132;52.088;5.402;2024-01-30T12:41:33;4.43;;;1.67;;
76320;SDS011;65132;52.088;5.402;2024-01-30T12:43:59;2.88;;;1.20;;
76320;SDS011;65132;52.088;5.402;2024-01-30T12:46:28;3.03;;;0.93;;
76320;SDS011;65132;52.088;5.402;2024-01-30T12:48:55;5.35;;;0.95;;
76320;SDS011;65132;52.088;5.402;2024-01-30T12:51:22;5.15;;;0.98;;
76320;SDS011;65132;52.088;5.402;2024-01-30T12:53:48;2.33;;;1.10;;
76320;SDS011;65132;52.088;5.402;2024-01-30T12:56:15;4.40;;;0.95;;
76320;SDS011;65132;52.088;5.402;2024-01-30T12:58:41;3.40;;;1.05;;
76320;SDS011;65132;52.088;5.402;2024-01-30T13:01:09;3.55;;;0.93;;
76320;SDS011;65132;52.088;5.402;2024-01-30T13:03:39;4.20;;;1.02;;
76320;SDS011;65132;52.088;5.402;2024-01-30T13:06:05;2.40;;;0.80;;
76320;SDS011;65132;52.088;5.402;2024-01-30T13:08:32;4.25;;;1.17;;
76320;SDS011;65132;52.088;5.402;2024-01-30T13:10:58;4.43;;;0.93;;
76320;SDS011;65132;52.088;5.402;2024-01-30T13:13:24;5.13;;;0.82;;
76320;SDS011;65132;52.088;5.402;2024-01-30T13:15:51;1.33;;;0.40;;
76320;SDS011;65132;52.088;5.402;2024-01-30T13:18:18;4.88;;;1.33;;
76320;SDS011;65132;52.088;5.402;2024-01-30T13:20:44;6.25;;;0.95;;
76320;SDS011;65132;52.088;5.402;2024-01-30T13:23:10;1.98;;;0.45;;
76320;SDS011;65132;52.088;5.402;2024-01-30T13:25:37;2.40;;;0.47;;
76320;SDS011;65132;52.088;5.402;2024-01-30T13:28:03;6.30;;;0.73;;
76320;SDS011;65132;52.088;5.402;2024-01-30T13:30:30;5.00;;;1.25;;
76320;SDS011;65132;52.088;5.402;2024-01-30T13:32:56;2.63;;;0.88;;
76320;SDS011;65132;52.088;5.402;2024-01-30T13:35:23;3.05;;;0.82;;
76320;SDS011;65132;52.088;5.402;2024-01-30T13:37:50;3.47;;;0.70;;
76320;SDS011;65132;52.088;5.402;2024-01-30T13:40:16;4.35;;;0.95;;
76320;SDS011;65132;52.088;5.402;2024-01-30T13:42:43;3.95;;;1.20;;
76320;SDS011;65132;52.088;5.402;2024-01-30T13:45:10;2.53;;;0.55;;
76320;SDS011;65132;52.088;5.402;2024-01-30T13:47:37;1.52;;;0.50;;
76320;SDS011;65132;52.088;5.402;2024-01-30T13:50:04;4.22;;;0.70;;
76320;SDS011;65132;52.088;5.402;2024-01-30T13:52:32;2.72;;;0.73;;
76320;SDS011;65132;52.088;5.402;2024-01-30T13:55:09;2.08;;;0.38;;
76320;SDS011;65132;52.088;5.402;2024-01-30T13:57:36;3.67;;;0.30;;
76320;SDS011;65132;52.088;5.402;2024-01-30T14:00:05;2.33;;;0.30;;
76320;SDS011;65132;52.088;5.402;2024-01-30T14:02:32;1.60;;;0.82;;
76320;SDS011;65132;52.088;5.402;2024-01-30T14:05:01;1.33;;;0.20;;
76320;SDS011;65132;52.088;5.402;2024-01-30T14:07:28;2.63;;;0.60;;
76320;SDS011;65132;52.088;5.402;2024-01-30T14:09:54;3.55;;;0.35;;
76320;SDS011;65132;52.088;5.402;2024-01-30T14:12:21;1.38;;;0.52;;
76320;SDS011;65132;52.088;5.402;2024-01-30T14:14:47;5.20;;;0.80;;
76320;SDS011;65132;52.088;5.402;2024-01-30T14:17:14;2.20;;;0.30;;
76320;SDS011;65132;52.088;5.402;2024-01-30T14:19:40;3.22;;;0.50;;
76320;SDS011;65132;52.088;5.402;2024-01-30T14:22:07;1.55;;;0.30;;
76320;SDS011;65132;52.088;5.402;2024-01-30T14:24:33;2.25;;;0.55;;
76320;SDS011;65132;52.088;5.402;2024-01-30T14:26:59;4.43;;;0.47;;
76320;SDS011;65132;52.088;5.402;2024-01-30T14:29:26;1.92;;;0.20;;
76320;SDS011;65132;52.088;5.402;2024-01-30T14:31:52;1.70;;;0.40;;
76320;SDS011;65132;52.088;5.402;2024-01-30T14:34:19;2.00;;;0.30;;
76320;SDS011;65132;52.088;5.402;2024-01-30T14:36:45;2.78;;;0.63;;
76320;SDS011;65132;52.088;5.402;2024-01-30T14:39:12;4.45;;;0.75;;
76320;SDS011;65132;52.088;5.402;2024-01-30T14:41:38;4.65;;;0.80;;
76320;SDS011;65132;52.088;5.402;2024-01-30T14:44:04;3.90;;;0.77;;
76320;SDS011;65132;52.088;5.402;2024-01-30T14:46:33;10.07;;;2.50;;
76320;SDS011;65132;52.088;5.402;2024-01-30T14:48:59;3.53;;;1.67;;